Terminal Aerodrome Forecast
Issued by NWS Los Angeles, CA

Home | Current Version | Previous Version | Text Only | Print | Product List | Glossary On
Versions: 1 2 3 4 5 6 7 8 9 10 11 12 13 14 15 16 17 18 19 20 21 22 23 24 25 26 27 28 29 30
988
FTUS46 KLOX 201424 AAA
TAFSMX
TAF AMD
KSMX 201424Z 2014/2112 15010G20KT P6SM VCSH OVC035
     FM201700 16012KT 4SM RA BR OVC010
     FM202200 16006KT 6SM -RA BR OVC007
     FM210400 VRB05KT 6SM -RA BR OVC025
     FM210900 VRB05KT 3SM -RA BR OVC010=

USA.gov is the U.S. government's official web portal to all federal, state and local government web resources and services.